Time;durP1;ratioP1;P1;durP2;ratioP2;P2;SDS_P1;SDS_P2;PMS_P1;PMS_P2;Temp;Humidity;BMP_temperature;BMP_pressure;BME280_temperature;BME280_humidity;BME280_pressure;Samples;Min_cycle;Max_cycle;Signal;HPM_P1;HPM_P2
2021/03/12 00:01:27;;;;;;;30.55;11.88;;;;;;;;;;4977898;28;20035;-78
2021/03/12 00:03:54;;;;;;;32.13;11.65;;;;;;;;;;4977675;28;20598;-79
2021/03/12 00:06:20;;;;;;;38.85;14.15;;;;;;;;;;4977333;28;20388;-77
2021/03/12 00:08:47;;;;;;;41.05;13.10;;;;;;;;;;4977011;28;20078;-75
2021/03/12 00:11:14;;;;;;;34.25;12.40;;;;;;;;;;4975704;28;20031;-77
2021/03/12 00:13:40;;;;;;;26.58;10.30;;;;;;;;;;4975690;28;20052;-77
2021/03/12 00:16:07;;;;;;;26.15;10.73;;;;;;;;;;4969272;28;20039;-77
2021/03/12 00:18:36;;;;;;;28.58;10.70;;;;;;;;;;4957621;28;20031;-78
2021/03/12 00:21:03;;;;;;;25.23;9.27;;;;;;;;;;4956200;29;20036;-80
2021/03/12 00:23:29;;;;;;;34.35;11.32;;;;;;;;;;4961049;28;20039;-79
2021/03/12 00:25:56;;;;;;;25.13;10.80;;;;;;;;;;4975309;28;20045;-77
2021/03/12 00:28:22;;;;;;;27.83;10.85;;;;;;;;;;4975389;28;20099;-79
2021/03/12 00:30:48;;;;;;;36.40;11.60;;;;;;;;;;4977037;28;20460;-75
2021/03/12 00:33:15;;;;;;;28.90;11.00;;;;;;;;;;4983255;28;20050;-81
2021/03/12 00:35:42;;;;;;;29.63;10.50;;;;;;;;;;4978476;28;20026;-76
2021/03/12 00:38:08;;;;;;;31.90;10.80;;;;;;;;;;4978587;28;20084;-82
2021/03/12 00:40:37;;;;;;;29.17;10.90;;;;;;;;;;4995995;28;20030;-78
2021/03/12 00:43:04;;;;;;;30.42;11.20;;;;;;;;;;4978447;28;20030;-76
2021/03/12 00:45:33;;;;;;;28.15;10.95;;;;;;;;;;4995639;28;20065;-76
2021/03/12 00:47:59;;;;;;;27.73;11.20;;;;;;;;;;4996220;28;20031;-78
2021/03/12 00:50:30;;;;;;;27.40;10.38;;;;;;;;;;4995756;28;20034;-77
2021/03/12 00:52:57;;;;;;;26.10;10.55;;;;;;;;;;4978208;28;20037;-78
2021/03/12 00:55:23;;;;;;;25.83;10.45;;;;;;;;;;4995582;28;20027;-75
2021/03/12 00:57:49;;;;;;;31.40;12.45;;;;;;;;;;4995582;28;20034;-76
2021/03/12 01:00:17;;;;;;;26.80;10.60;;;;;;;;;;4996291;28;20026;-76
2021/03/12 01:02:43;;;;;;;25.63;10.80;;;;;;;;;;4977982;28;20030;-76
2021/03/12 01:05:09;;;;;;;25.25;11.00;;;;;;;;;;4995361;28;20046;-76
2021/03/12 01:07:36;;;;;;;23.98;8.98;;;;;;;;;;4977920;28;20104;-79
2021/03/12 01:10:03;;;;;;;37.90;12.27;;;;;;;;;;4977839;28;20435;-77
2021/03/12 01:12:29;;;;;;;30.63;10.85;;;;;;;;;;4995691;28;20053;-74
2021/03/12 01:14:56;;;;;;;34.53;12.73;;;;;;;;;;4995358;28;20493;-76
2021/03/12 01:17:22;;;;;;;33.65;11.93;;;;;;;;;;4977720;28;20054;-76
2021/03/12 01:19:48;;;;;;;28.17;11.63;;;;;;;;;;4995181;28;20030;-80
2021/03/12 01:22:14;;;;;;;26.48;10.70;;;;;;;;;;4977542;28;20022;-79
2021/03/12 01:24:41;;;;;;;27.92;11.68;;;;;;;;;;4973957;28;20047;-77
2021/03/12 01:27:08;;;;;;;27.77;10.77;;;;;;;;;;4975632;28;20495;-77
2021/03/12 01:29:34;;;;;;;26.13;10.70;;;;;;;;;;4975596;28;20063;-78
2021/03/12 01:32:01;;;;;;;29.40;10.57;;;;;;;;;;4974357;28;20420;-77
2021/03/12 01:34:27;;;;;;;36.55;12.65;;;;;;;;;;4975541;28;20400;-81
2021/03/12 01:36:54;;;;;;;26.98;11.18;;;;;;;;;;4975336;28;20034;-75
2021/03/12 01:39:20;;;;;;;35.00;12.93;;;;;;;;;;4974010;28;20027;-76
2021/03/12 01:41:46;;;;;;;31.08;13.27;;;;;;;;;;4974003;28;20062;-77
2021/03/12 01:44:13;;;;;;;41.05;13.55;;;;;;;;;;4975364;28;20105;-79
2021/03/12 01:46:39;;;;;;;34.58;13.05;;;;;;;;;;4976977;28;20026;-76
2021/03/12 01:49:06;;;;;;;26.92;11.15;;;;;;;;;;4975217;28;20026;-77
2021/03/12 01:51:33;;;;;;;34.67;12.88;;;;;;;;;;4975216;28;20081;-77
2021/03/12 01:54:00;;;;;;;31.98;13.18;;;;;;;;;;4975281;28;20023;-76
2021/03/12 01:56:26;;;;;;;36.53;13.05;;;;;;;;;;4973895;28;20026;-76
2021/03/12 01:58:53;;;;;;;35.05;12.88;;;;;;;;;;4975101;28;20031;-76
2021/03/12 02:01:20;;;;;;;38.92;13.57;;;;;;;;;;4975546;28;20022;-77
2021/03/12 02:03:46;;;;;;;36.40;13.82;;;;;;;;;;4973767;28;20085;-76
2021/03/12 02:06:12;;;;;;;31.17;12.27;;;;;;;;;;4974870;28;20111;-75
2021/03/12 02:08:39;;;;;;;35.22;14.65;;;;;;;;;;4975112;28;20042;-76
2021/03/12 02:11:05;;;;;;;37.25;12.98;;;;;;;;;;4974736;28;20491;-75
2021/03/12 02:13:43;;;;;;;36.08;13.35;;;;;;;;;;4975251;28;20023;-78
2021/03/12 02:16:13;;;;;;;40.05;14.38;;;;;;;;;;4973484;28;20034;-76
2021/03/12 02:18:43;;;;;;;40.92;14.82;;;;;;;;;;4974691;28;20547;-77
2021/03/12 02:21:18;;;;;;;29.08;11.98;;;;;;;;;;4973457;28;20023;-76
2021/03/12 02:23:51;;;;;;;32.47;12.63;;;;;;;;;;4973127;28;20050;-76
2021/03/12 02:26:17;;;;;;;33.65;13.70;;;;;;;;;;4973239;28;20122;-77
2021/03/12 02:28:44;;;;;;;27.20;12.05;;;;;;;;;;4975071;28;20062;-76
2021/03/12 02:31:10;;;;;;;37.05;14.63;;;;;;;;;;4974609;28;20109;-77
2021/03/12 02:33:37;;;;;;;37.78;15.82;;;;;;;;;;4974569;28;20053;-77
2021/03/12 02:36:05;;;;;;;38.65;15.13;;;;;;;;;;4974125;28;20114;-77
2021/03/12 02:38:33;;;;;;;28.65;10.95;;;;;;;;;;4973226;28;20062;-77
2021/03/12 02:41:00;;;;;;;35.65;13.65;;;;;;;;;;4974982;28;20027;-77
2021/03/12 02:43:27;;;;;;;31.70;12.75;;;;;;;;;;4975293;28;20054;-78
2021/03/12 02:45:54;;;;;;;31.85;12.32;;;;;;;;;;4974377;28;20039;-76
2021/03/12 02:48:21;;;;;;;27.85;11.50;;;;;;;;;;4974927;28;20372;-76
2021/03/12 02:50:48;;;;;;;29.23;12.40;;;;;;;;;;4974464;28;20031;-77
2021/03/12 02:53:14;;;;;;;26.60;12.18;;;;;;;;;;4974427;28;20031;-76
2021/03/12 02:55:41;;;;;;;31.63;11.52;;;;;;;;;;4975035;28;20055;-76
2021/03/12 02:58:07;;;;;;;28.50;11.02;;;;;;;;;;4975979;28;20109;-76
2021/03/12 03:00:34;;;;;;;29.65;12.55;;;;;;;;;;4977002;28;20057;-77
2021/03/12 03:03:02;;;;;;;28.50;11.90;;;;;;;;;;4978216;28;20027;-82
2021/03/12 03:05:28;;;;;;;26.52;11.10;;;;;;;;;;4976712;28;20034;-76
2021/03/12 03:07:56;;;;;;;28.75;12.43;;;;;;;;;;4976760;28;20023;-76
2021/03/12 03:10:23;;;;;;;34.13;11.45;;;;;;;;;;4976824;28;20038;-76
2021/03/12 03:12:50;;;;;;;30.73;12.07;;;;;;;;;;4978060;28;20026;-77
2021/03/12 03:15:18;;;;;;;29.05;11.15;;;;;;;;;;4976773;28;20041;-76
2021/03/12 03:17:46;;;;;;;31.83;12.75;;;;;;;;;;4976736;28;20038;-76
2021/03/12 03:20:14;;;;;;;31.20;11.98;;;;;;;;;;4977994;28;20472;-76
2021/03/12 03:22:40;;;;;;;26.42;10.90;;;;;;;;;;4978155;28;20595;-77
2021/03/12 03:25:10;;;;;;;26.92;11.27;;;;;;;;;;4976340;28;20106;-75
2021/03/12 03:27:37;;;;;;;29.02;11.65;;;;;;;;;;4976502;28;20051;-76
2021/03/12 03:30:07;;;;;;;30.13;13.15;;;;;;;;;;4977752;28;20022;-77
2021/03/12 03:32:33;;;;;;;35.55;13.10;;;;;;;;;;4976478;28;20031;-78
2021/03/12 03:34:59;;;;;;;29.58;12.55;;;;;;;;;;4976340;28;20023;-77
2021/03/12 03:37:26;;;;;;;31.23;12.32;;;;;;;;;;4976293;28;20440;-77
2021/03/12 03:39:52;;;;;;;31.23;11.60;;;;;;;;;;4976277;28;20038;-80
2021/03/12 03:42:25;;;;;;;33.03;11.00;;;;;;;;;;4976314;28;20034;-77
2021/03/12 03:44:51;;;;;;;23.77;10.77;;;;;;;;;;4976131;28;20031;-77
2021/03/12 03:47:18;;;;;;;30.05;11.07;;;;;;;;;;4976324;28;20022;-78
2021/03/12 03:49:45;;;;;;;26.20;10.50;;;;;;;;;;4977401;28;20157;-75
2021/03/12 03:52:11;;;;;;;31.13;12.07;;;;;;;;;;4977435;28;20439;-75
2021/03/12 03:54:38;;;;;;;29.35;12.63;;;;;;;;;;4976103;28;20057;-77
2021/03/12 03:57:05;;;;;;;30.98;12.13;;;;;;;;;;4977380;28;20084;-76
2021/03/12 03:59:32;;;;;;;32.38;12.65;;;;;;;;;;4975996;28;20166;-75
2021/03/12 04:01:59;;;;;;;33.60;12.52;;;;;;;;;;4977826;28;20076;-79
2021/03/12 04:04:26;;;;;;;37.35;14.27;;;;;;;;;;4977650;28;20027;-80
2021/03/12 04:06:52;;;;;;;28.65;12.70;;;;;;;;;;4977151;28;20081;-76
2021/03/12 04:09:19;;;;;;;27.85;12.02;;;;;;;;;;4976599;28;20037;-78
2021/03/12 04:11:46;;;;;;;30.13;12.02;;;;;;;;;;4976195;28;20406;-78
2021/03/12 04:14:13;;;;;;;34.58;12.45;;;;;;;;;;4977053;28;20034;-77
2021/03/12 04:16:41;;;;;;;33.22;12.93;;;;;;;;;;4977032;28;20027;-77
2021/03/12 04:19:08;;;;;;;31.88;11.88;;;;;;;;;;4975572;28;20031;-77
2021/03/12 04:21:34;;;;;;;34.85;13.40;;;;;;;;;;4976962;28;20058;-76
2021/03/12 04:24:01;;;;;;;28.65;11.40;;;;;;;;;;4990611;28;20034;-79
2021/03/12 04:26:28;;;;;;;36.65;13.32;;;;;;;;;;5008519;28;20074;-78
2021/03/12 04:28:55;;;;;;;29.98;12.40;;;;;;;;;;4978646;28;20426;-76
2021/03/12 04:31:22;;;;;;;32.40;12.75;;;;;;;;;;4996129;28;20463;-75
2021/03/12 04:33:49;;;;;;;32.40;11.70;;;;;;;;;;4996045;28;20026;-80
2021/03/12 04:36:16;;;;;;;30.40;12.35;;;;;;;;;;4996087;28;20120;-78
2021/03/12 04:38:43;;;;;;;30.13;12.27;;;;;;;;;;4996035;28;20033;-78
2021/03/12 04:41:10;;;;;;;28.27;10.95;;;;;;;;;;4978392;28;20026;-76
2021/03/12 04:43:38;;;;;;;34.75;11.60;;;;;;;;;;4995820;28;20027;-77
2021/03/12 04:46:05;;;;;;;29.08;11.15;;;;;;;;;;4995533;28;20050;-77
2021/03/12 04:48:31;;;;;;;29.98;11.55;;;;;;;;;;4995842;28;20030;-79
2021/03/12 04:50:59;;;;;;;28.77;11.45;;;;;;;;;;4995675;28;20056;-77
2021/03/12 04:53:28;;;;;;;30.05;11.43;;;;;;;;;;4995575;28;20025;-77
2021/03/12 04:55:55;;;;;;;27.85;9.93;;;;;;;;;;4978221;28;20372;-76
2021/03/12 04:58:22;;;;;;;28.58;11.60;;;;;;;;;;4995935;28;20022;-77
2021/03/12 05:00:48;;;;;;;30.92;11.30;;;;;;;;;;4978035;28;20026;-77
2021/03/12 05:03:14;;;;;;;28.05;10.90;;;;;;;;;;4995415;28;20450;-75
2021/03/12 05:05:42;;;;;;;26.10;10.73;;;;;;;;;;4995346;28;20038;-76
2021/03/12 05:08:09;;;;;;;32.33;11.00;;;;;;;;;;4977924;28;20037;-76
2021/03/12 05:10:35;;;;;;;27.88;10.93;;;;;;;;;;4977851;28;20026;-77
2021/03/12 05:13:03;;;;;;;27.77;9.40;;;;;;;;;;4995379;28;20363;-76
2021/03/12 05:15:30;;;;;;;25.23;10.23;;;;;;;;;;4977572;28;20026;-74
2021/03/12 05:17:56;;;;;;;25.67;10.02;;;;;;;;;;4995178;28;20034;-76
2021/03/12 05:20:24;;;;;;;30.42;11.13;;;;;;;;;;4994407;28;20030;-78
2021/03/12 05:22:51;;;;;;;34.13;12.63;;;;;;;;;;4977631;28;20081;-79
2021/03/12 05:25:17;;;;;;;39.22;14.65;;;;;;;;;;4994902;28;20395;-77
2021/03/12 05:27:44;;;;;;;36.67;14.80;;;;;;;;;;4994962;28;20026;-77
2021/03/12 05:30:10;;;;;;;22.13;9.18;;;;;;;;;;4995149;28;20029;-79
2021/03/12 05:32:37;;;;;;;20.40;8.30;;;;;;;;;;4995504;28;20030;-77
2021/03/12 05:35:03;;;;;;;24.80;7.97;;;;;;;;;;4994886;28;20030;-80
2021/03/12 05:37:29;;;;;;;20.50;7.53;;;;;;;;;;4977300;28;20026;-77
2021/03/12 05:39:55;;;;;;;19.00;7.20;;;;;;;;;;4977472;28;20027;-79
2021/03/12 05:42:21;;;;;;;16.58;6.18;;;;;;;;;;4977502;28;20022;-80
2021/03/12 05:44:48;;;;;;;13.65;5.53;;;;;;;;;;4994702;28;20570;-78
2021/03/12 05:47:14;;;;;;;13.80;5.53;;;;;;;;;;4977382;28;20027;-77
2021/03/12 05:49:40;;;;;;;16.75;6.00;;;;;;;;;;4995321;28;20464;-77
2021/03/12 05:52:10;;;;;;;14.23;5.25;;;;;;;;;;4995278;28;20073;-76
2021/03/12 05:54:36;;;;;;;12.65;5.45;;;;;;;;;;4977260;28;20034;-77
2021/03/12 05:57:02;;;;;;;23.23;7.53;;;;;;;;;;4994549;28;20019;-78
2021/03/12 05:59:29;;;;;;;25.02;8.15;;;;;;;;;;4994615;28;20037;-77
2021/03/12 06:01:56;;;;;;;18.10;6.55;;;;;;;;;;4977170;28;20053;-76
2021/03/12 06:04:22;;;;;;;11.38;5.22;;;;;;;;;;4975586;28;20061;-80
2021/03/12 06:06:48;;;;;;;15.52;6.55;;;;;;;;;;4977016;28;20022;-79
2021/03/12 06:09:14;;;;;;;12.75;5.43;;;;;;;;;;4976350;28;20034;-86
2021/03/12 06:11:40;;;;;;;13.02;5.55;;;;;;;;;;4995393;28;20064;-85
2021/03/12 06:14:07;;;;;;;11.68;4.53;;;;;;;;;;4995200;28;20027;-79
2021/03/12 06:16:33;;;;;;;10.40;3.33;;;;;;;;;;4995356;28;20364;-78
2021/03/12 06:19:15;;;;;;;6.07;2.50;;;;;;;;;;4978419;28;20022;-80
2021/03/12 06:21:42;;;;;;;2.42;1.42;;;;;;;;;;4977227;28;20057;-84
2021/03/12 06:24:24;;;;;;;2.40;0.93;;;;;;;;;;4977259;28;20046;-82
2021/03/12 06:26:50;;;;;;;2.78;0.65;;;;;;;;;;4977060;28;20034;-82
2021/03/12 06:29:17;;;;;;;1.27;0.40;;;;;;;;;;4976831;28;20109;-82
2021/03/12 06:31:52;;;;;;;3.50;0.20;;;;;;;;;;4976751;28;20033;-80
2021/03/12 06:34:18;;;;;;;2.33;0.30;;;;;;;;;;4976740;28;20122;-82
2021/03/12 06:36:45;;;;;;;6.13;0.68;;;;;;;;;;4979098;28;20467;-77
2021/03/12 06:39:11;;;;;;;0.52;0.20;;;;;;;;;;4978382;28;20034;-84
2021/03/12 06:41:37;;;;;;;0.25;0.10;;;;;;;;;;4976421;28;20157;-83
2021/03/12 06:44:22;;;;;;;0.35;0.17;;;;;;;;;;4976403;28;20125;-82
2021/03/12 06:46:48;;;;;;;0.38;0.10;;;;;;;;;;4982357;28;20066;-83
2021/03/12 06:49:14;;;;;;;0.30;0.10;;;;;;;;;;4957452;28;20031;-89
2021/03/12 06:52:03;;;;;;;0.47;0.20;;;;;;;;;;4957882;28;20396;-84
2021/03/12 06:54:32;;;;;;;0.38;0.10;;;;;;;;;;4957329;28;20031;-85
2021/03/12 06:56:59;;;;;;;1.02;0.20;;;;;;;;;;4974476;28;20050;-82
2021/03/12 06:59:25;;;;;;;1.75;0.25;;;;;;;;;;4956909;28;20121;-85
2021/03/12 07:01:58;;;;;;;1.10;0.20;;;;;;;;;;4974320;28;20026;-81
2021/03/12 07:04:39;;;;;;;0.75;0.20;;;;;;;;;;4972600;28;20030;-81
2021/03/12 07:07:05;;;;;;;0.40;0.15;;;;;;;;;;4995531;28;20026;-83
2021/03/12 07:09:31;;;;;;;0.70;0.20;;;;;;;;;;4976652;28;20030;-80
2021/03/12 07:11:59;;;;;;;1.40;0.30;;;;;;;;;;4993544;28;20034;-80
2021/03/12 07:14:30;;;;;;;0.20;0.10;;;;;;;;;;4993605;28;20081;-80
2021/03/12 07:16:57;;;;;;;0.63;0.22;;;;;;;;;;4976160;28;20026;-80
2021/03/12 07:19:23;;;;;;;1.48;0.20;;;;;;;;;;4976033;28;20065;-79
2021/03/12 07:21:50;;;;;;;0.95;0.40;;;;;;;;;;4975995;28;20038;-79
2021/03/12 07:24:19;;;;;;;1.27;0.25;;;;;;;;;;4993240;28;20407;-80
2021/03/12 07:26:46;;;;;;;0.82;0.17;;;;;;;;;;4993275;28;20513;-83
2021/03/12 07:29:13;;;;;;;0.77;0.30;;;;;;;;;;4976164;28;20030;-80
2021/03/12 07:31:40;;;;;;;0.70;0.20;;;;;;;;;;4972104;28;20046;-81
2021/03/12 07:34:14;;;;;;;1.48;0.63;;;;;;;;;;4973671;28;20139;-84
2021/03/12 07:36:42;;;;;;;0.73;0.15;;;;;;;;;;4981705;28;20022;-81
2021/03/12 07:39:09;;;;;;;1.00;0.30;;;;;;;;;;4981664;28;20022;-81
2021/03/12 07:41:35;;;;;;;0.57;0.25;;;;;;;;;;4964730;28;20029;-83
2021/03/12 07:44:01;;;;;;;0.90;0.20;;;;;;;;;;4985813;28;20027;-82
2021/03/12 07:46:27;;;;;;;0.47;0.10;;;;;;;;;;4976832;28;20039;-81
2021/03/12 07:48:54;;;;;;;1.38;0.30;;;;;;;;;;4979499;28;20120;-79
2021/03/12 07:51:20;;;;;;;0.75;0.28;;;;;;;;;;4979278;28;20053;-80
2021/03/12 07:53:47;;;;;;;0.57;0.22;;;;;;;;;;4979538;28;20018;-79
2021/03/12 07:56:14;;;;;;;0.65;0.15;;;;;;;;;;4979405;28;20038;-79
2021/03/12 07:58:55;;;;;;;2.92;0.32;;;;;;;;;;4997291;28;20498;-79
2021/03/12 08:01:22;;;;;;;3.40;0.50;;;;;;;;;;4979228;28;20034;-80
2021/03/12 08:03:50;;;;;;;1.63;0.40;;;;;;;;;;4996615;28;20029;-80
2021/03/12 08:06:20;;;;;;;1.15;0.30;;;;;;;;;;4996667;28;20045;-81
2021/03/12 08:08:46;;;;;;;1.02;0.30;;;;;;;;;;4996841;28;20019;-80
2021/03/12 08:11:38;;;;;;;1.70;0.47;;;;;;;;;;4979001;28;20030;-81
2021/03/12 08:14:12;;;;;;;0.70;0.30;;;;;;;;;;4979005;28;20034;-81
2021/03/12 08:16:58;;;;;;;1.40;0.30;;;;;;;;;;4976447;28;20430;-80
2021/03/12 08:19:46;;;;;;;1.60;0.30;;;;;;;;;;4984235;28;20165;-80
2021/03/12 08:22:28;;;;;;;1.02;0.30;;;;;;;;;;4985962;28;20053;-84
2021/03/12 08:24:56;;;;;;;0.85;0.30;;;;;;;;;;4986989;28;20047;-80
2021/03/12 08:27:39;;;;;;;1.40;0.30;;;;;;;;;;4970006;28;20138;-81
2021/03/12 08:30:06;;;;;;;1.58;0.40;;;;;;;;;;4986059;28;20054;-82
2021/03/12 08:32:36;;;;;;;3.08;0.35;;;;;;;;;;4987696;28;20042;-81
2021/03/12 08:35:03;;;;;;;0.60;0.22;;;;;;;;;;4985256;28;20037;-79
2021/03/12 08:37:30;;;;;;;0.30;0.13;;;;;;;;;;4985058;28;20037;-80
2021/03/12 08:40:14;;;;;;;1.23;0.20;;;;;;;;;;4985020;28;20034;-79
2021/03/12 08:43:00;;;;;;;3.33;0.50;;;;;;;;;;4985871;28;20123;-79
2021/03/12 08:45:32;;;;;;;0.63;0.20;;;;;;;;;;4983661;28;20038;-80
2021/03/12 08:48:05;;;;;;;2.53;0.10;;;;;;;;;;4982945;28;20117;-82
2021/03/12 08:50:33;;;;;;;1.88;0.28;;;;;;;;;;4967176;28;20034;-83
2021/03/12 08:52:59;;;;;;;0.65;0.20;;;;;;;;;;4974242;28;20057;-80
2021/03/12 08:55:25;;;;;;;1.40;0.20;;;;;;;;;;4977129;28;20033;-80
2021/03/12 08:57:51;;;;;;;1.08;0.20;;;;;;;;;;4978084;28;20463;-81
2021/03/12 09:00:17;;;;;;;0.70;0.20;;;;;;;;;;4977836;28;20121;-80
2021/03/12 09:02:44;;;;;;;1.25;0.10;;;;;;;;;;4978162;28;20038;-80
2021/03/12 09:05:28;;;;;;;0.52;0.20;;;;;;;;;;4995561;28;20030;-80
2021/03/12 09:07:55;;;;;;;0.75;0.25;;;;;;;;;;4995537;28;20066;-80
2021/03/12 09:10:25;;;;;;;0.70;0.10;;;;;;;;;;4977451;28;20027;-81
2021/03/12 09:12:51;;;;;;;1.50;0.30;;;;;;;;;;4977827;28;20077;-80
2021/03/12 09:15:24;;;;;;;0.43;0.13;;;;;;;;;;4974127;28;20031;-81
2021/03/12 09:17:50;;;;;;;0.90;0.30;;;;;;;;;;4981898;28;20053;-83
2021/03/12 09:20:21;;;;;;;3.53;0.30;;;;;;;;;;4985569;28;20467;-80
2021/03/12 09:22:54;;;;;;;1.15;0.32;;;;;;;;;;4985978;28;20074;-86
2021/03/12 09:25:20;;;;;;;;;;;;;;;;;;4985468;28;20039;-82
2021/03/12 09:27:57;;;;;;;2.60;0.10;;;;;;;;;;4982925;28;19956;-81
2021/03/12 09:30:24;;;;;;;0.63;0.20;;;;;;;;;;4983100;28;20030;-84
2021/03/12 09:32:50;;;;;;;3.03;0.30;;;;;;;;;;4967120;28;20884;-86
2021/03/12 09:35:18;;;;;;;1.95;0.35;;;;;;;;;;4984524;28;20027;-86
2021/03/12 09:37:45;;;;;;;2.65;0.20;;;;;;;;;;4975870;28;20062;-83
2021/03/12 09:40:31;;;;;;;1.30;0.30;;;;;;;;;;4977214;28;20502;-83
2021/03/12 09:42:58;;;;;;;1.60;0.20;;;;;;;;;;4979939;28;20023;-83
2021/03/12 09:45:25;;;;;;;0.75;0.20;;;;;;;;;;4978221;28;20069;-82
2021/03/12 09:47:53;;;;;;;0.63;0.17;;;;;;;;;;4994927;28;20157;-87
2021/03/12 09:50:23;;;;;;;2.38;0.73;;;;;;;;;;4977440;28;20475;-87
2021/03/12 09:52:49;;;;;;;1.17;0.20;;;;;;;;;;4995048;28;20019;-85
2021/03/12 09:55:16;;;;;;;1.50;0.30;;;;;;;;;;4977303;28;20049;-85
2021/03/12 09:57:42;;;;;;;0.40;0.10;;;;;;;;;;4976892;28;20065;-84
2021/03/12 10:00:09;;;;;;;1.52;0.30;;;;;;;;;;4977500;28;20414;-81
2021/03/12 10:02:56;;;;;;;0.57;0.10;;;;;;;;;;4976326;28;20030;-85
2021/03/12 10:05:24;;;;;;;0.93;0.25;;;;;;;;;;4958181;28;20110;-79
2021/03/12 10:07:50;;;;;;;0.80;0.30;;;;;;;;;;4957708;28;20114;-79
2021/03/12 10:10:17;;;;;;;1.17;0.38;;;;;;;;;;4957599;28;20131;-81
2021/03/12 10:12:44;;;;;;;0.60;0.10;;;;;;;;;;4975195;28;20031;-81
2021/03/12 10:15:12;;;;;;;1.75;0.30;;;;;;;;;;4974878;28;20035;-82
2021/03/12 10:17:42;;;;;;;1.00;0.30;;;;;;;;;;4957463;28;20066;-82
2021/03/12 10:20:11;;;;;;;1.75;0.50;;;;;;;;;;4957369;28;20122;-82
2021/03/12 10:22:43;;;;;;;0.60;0.20;;;;;;;;;;4975338;28;20050;-81
2021/03/12 10:25:11;;;;;;;1.45;0.28;;;;;;;;;;4957108;28;20077;-81
2021/03/12 10:27:48;;;;;;;0.82;0.28;;;;;;;;;;4974665;28;20158;-81
2021/03/12 10:30:19;;;;;;;1.05;0.20;;;;;;;;;;4974751;28;20484;-82
2021/03/12 10:32:47;;;;;;;1.02;0.30;;;;;;;;;;4957312;28;20027;-82
2021/03/12 10:35:18;;;;;;;3.63;0.47;;;;;;;;;;4974519;28;20039;-82
2021/03/12 10:37:44;;;;;;;1.75;0.40;;;;;;;;;;4957120;28;20514;-82
2021/03/12 10:40:10;;;;;;;3.13;0.40;;;;;;;;;;4974660;28;20483;-81
2021/03/12 10:42:43;;;;;;;2.88;0.28;;;;;;;;;;4957166;28;20053;-80
2021/03/12 10:45:11;;;;;;;1.38;0.20;;;;;;;;;;4974521;28;20033;-81
2021/03/12 10:47:37;;;;;;;2.55;0.50;;;;;;;;;;4974570;28;20134;-81
2021/03/12 10:50:22;;;;;;;1.48;0.50;;;;;;;;;;4974299;28;20062;-81
2021/03/12 10:52:49;;;;;;;1.83;0.60;;;;;;;;;;4974424;28;20480;-85
2021/03/12 10:55:15;;;;;;;1.25;0.40;;;;;;;;;;4974815;28;20039;-80
2021/03/12 10:57:45;;;;;;;3.15;0.40;;;;;;;;;;4957094;28;20033;-81
2021/03/12 11:00:16;;;;;;;2.85;0.50;;;;;;;;;;4974515;28;20031;-80
2021/03/12 11:02:42;;;;;;;1.77;0.50;;;;;;;;;;4959647;28;20027;-83
2021/03/12 11:05:09;;;;;;;1.33;0.32;;;;;;;;;;4993617;28;20085;-80
2021/03/12 11:07:35;;;;;;;0.32;0.20;;;;;;;;;;4976286;28;20061;-79
2021/03/12 11:10:01;;;;;;;4.55;0.32;;;;;;;;;;4993508;28;20033;-81
2021/03/12 11:12:37;;;;;;;1.30;0.30;;;;;;;;;;4976163;28;20037;-82
2021/03/12 11:15:05;;;;;;;1.85;0.30;;;;;;;;;;4976120;28;20046;-79
2021/03/12 11:17:31;;;;;;;2.80;0.40;;;;;;;;;;4976371;28;20026;-79
2021/03/12 11:19:57;;;;;;;1.35;0.38;;;;;;;;;;4979756;28;20022;-82
2021/03/12 11:22:23;;;;;;;1.05;0.40;;;;;;;;;;4979457;28;20026;-79
2021/03/12 11:24:49;;;;;;;0.45;0.22;;;;;;;;;;4979237;28;20056;-80
2021/03/12 11:27:15;;;;;;;1.95;0.35;;;;;;;;;;4979845;28;20073;-81
2021/03/12 11:29:42;;;;;;;0.80;0.20;;;;;;;;;;4979614;28;20487;-80
2021/03/12 11:32:09;;;;;;;2.03;0.57;;;;;;;;;;4980123;28;20473;-83
2021/03/12 11:34:35;;;;;;;2.65;0.60;;;;;;;;;;4979939;28;20033;-82
2021/03/12 11:37:02;;;;;;;1.80;0.52;;;;;;;;;;4978647;28;20042;-87
2021/03/12 11:39:28;;;;;;;1.50;0.30;;;;;;;;;;4980083;28;20073;-84
2021/03/12 11:41:54;;;;;;;3.20;0.85;;;;;;;;;;4979603;28;20438;-80
2021/03/12 11:44:20;;;;;;;3.92;0.60;;;;;;;;;;4979847;28;20046;-80
2021/03/12 11:46:46;;;;;;;2.03;0.30;;;;;;;;;;4979791;28;20022;-81
2021/03/12 11:49:13;;;;;;;0.77;0.30;;;;;;;;;;4980962;28;20121;-81
2021/03/12 11:51:39;;;;;;;2.53;0.60;;;;;;;;;;4980189;28;20476;-80
2021/03/12 11:54:06;;;;;;;2.65;0.43;;;;;;;;;;4996948;28;20105;-81
2021/03/12 11:56:32;;;;;;;2.28;0.70;;;;;;;;;;4979861;28;20034;-83
2021/03/12 11:58:59;;;;;;;1.52;0.30;;;;;;;;;;4981635;28;20449;-81
2021/03/12 12:01:25;;;;;;;1.48;0.35;;;;;;;;;;4992163;28;20094;-80
2021/03/12 12:03:51;;;;;;;2.10;0.60;;;;;;;;;;4990367;28;20042;-81
2021/03/12 12:06:17;;;;;;;1.77;0.45;;;;;;;;;;4979849;28;20022;-85
2021/03/12 12:08:43;;;;;;;1.35;0.30;;;;;;;;;;4997227;28;20034;-84
2021/03/12 12:11:10;;;;;;;0.95;0.40;;;;;;;;;;4997194;28;20104;-79
2021/03/12 12:13:36;;;;;;;1.33;0.40;;;;;;;;;;4979117;28;20110;-81
2021/03/12 12:16:02;;;;;;;0.90;0.30;;;;;;;;;;4979341;28;20423;-81
2021/03/12 12:18:28;;;;;;;5.65;0.50;;;;;;;;;;4998179;28;20129;-81
2021/03/12 12:20:55;;;;;;;0.80;0.43;;;;;;;;;;4979506;28;20506;-81
2021/03/12 12:23:21;;;;;;;2.60;0.60;;;;;;;;;;4978749;28;20113;-79
2021/03/12 12:25:48;;;;;;;2.78;0.50;;;;;;;;;;4996940;28;20495;-79
2021/03/12 12:28:14;;;;;;;1.63;0.52;;;;;;;;;;4996613;28;20027;-79
2021/03/12 12:30:41;;;;;;;3.58;0.60;;;;;;;;;;4997460;28;20056;-80
2021/03/12 12:33:07;;;;;;;2.72;0.52;;;;;;;;;;4998557;28;20026;-83
2021/03/12 12:35:33;;;;;;;2.50;0.35;;;;;;;;;;4999916;28;20034;-80
2021/03/12 12:37:59;;;;;;;0.65;0.30;;;;;;;;;;4984754;28;20081;-84
2021/03/12 12:40:25;;;;;;;4.30;0.45;;;;;;;;;;5000418;28;20061;-80
2021/03/12 12:42:51;;;;;;;4.00;0.77;;;;;;;;;;4998933;28;20078;-80
2021/03/12 12:45:18;;;;;;;1.27;0.40;;;;;;;;;;4996856;28;20038;-89
2021/03/12 12:47:44;;;;;;;1.52;0.40;;;;;;;;;;4999519;28;20054;-80
2021/03/12 12:50:10;;;;;;;0.93;0.30;;;;;;;;;;4998367;28;20026;-79
2021/03/12 12:52:37;;;;;;;1.60;0.40;;;;;;;;;;4997401;28;20030;-88
2021/03/12 12:55:06;;;;;;;2.80;0.35;;;;;;;;;;4996822;28;20031;-83
2021/03/12 12:57:32;;;;;;;0.90;0.30;;;;;;;;;;4979234;28;20062;-88
2021/03/12 12:59:58;;;;;;;0.57;0.20;;;;;;;;;;4978745;28;20026;-80
2021/03/12 13:02:24;;;;;;;0.95;0.35;;;;;;;;;;4980312;28;20037;-80
2021/03/12 13:04:50;;;;;;;1.50;0.52;;;;;;;;;;4996133;28;20033;-80
2021/03/12 13:07:17;;;;;;;1.05;0.22;;;;;;;;;;4995824;28;20379;-80
2021/03/12 13:09:43;;;;;;;1.88;0.40;;;;;;;;;;4978347;28;20383;-80
2021/03/12 13:12:09;;;;;;;1.80;0.35;;;;;;;;;;4978337;28;20503;-80
2021/03/12 13:14:37;;;;;;;2.95;0.70;;;;;;;;;;4978285;28;20099;-80
2021/03/12 13:17:03;;;;;;;2.65;0.40;;;;;;;;;;4995920;28;20026;-78
2021/03/12 13:19:29;;;;;;;3.33;0.47;;;;;;;;;;4982285;28;20029;-83
2021/03/12 13:21:55;;;;;;;1.05;0.30;;;;;;;;;;4977883;28;20117;-82
2021/03/12 13:24:22;;;;;;;2.25;0.40;;;;;;;;;;4977877;28;20137;-84
2021/03/12 13:26:48;;;;;;;1.58;0.40;;;;;;;;;;4995589;28;20065;-83
2021/03/12 13:29:14;;;;;;;2.03;0.22;;;;;;;;;;4995545;28;20239;-81
2021/03/12 13:31:40;;;;;;;2.80;0.60;;;;;;;;;;4977907;28;20034;-81
2021/03/12 13:34:06;;;;;;;0.88;0.43;;;;;;;;;;4979275;28;20490;-84
2021/03/12 13:36:34;;;;;;;2.42;0.80;;;;;;;;;;4996257;28;20084;-85
2021/03/12 13:39:00;;;;;;;2.80;0.60;;;;;;;;;;4978133;28;20503;-87
2021/03/12 13:41:26;;;;;;;1.30;0.57;;;;;;;;;;4977773;28;20033;-87
2021/03/12 13:43:52;;;;;;;1.77;0.60;;;;;;;;;;4977959;28;20027;-86
2021/03/12 13:46:19;;;;;;;0.98;0.35;;;;;;;;;;4976663;28;20022;-87
2021/03/12 13:48:45;;;;;;;1.25;0.47;;;;;;;;;;4975426;28;20078;-87
2021/03/12 13:51:12;;;;;;;1.85;0.70;;;;;;;;;;4975172;28;20027;-86
2021/03/12 13:53:38;;;;;;;2.13;0.55;;;;;;;;;;4976325;28;20054;-81
2021/03/12 13:56:04;;;;;;;2.85;0.60;;;;;;;;;;4976040;28;20512;-84
2021/03/12 13:58:31;;;;;;;1.92;0.60;;;;;;;;;;4984438;28;20031;-82
2021/03/12 14:00:57;;;;;;;1.45;0.68;;;;;;;;;;5015733;28;20485;-83
2021/03/12 14:03:23;;;;;;;3.28;0.73;;;;;;;;;;4982307;28;20037;-83
2021/03/12 14:05:50;;;;;;;1.63;0.52;;;;;;;;;;4978558;28;20395;-81
2021/03/12 14:08:16;;;;;;;1.60;0.45;;;;;;;;;;4978074;28;20116;-81
2021/03/12 14:10:42;;;;;;;1.63;0.70;;;;;;;;;;4978800;28;20065;-83
2021/03/12 14:13:11;;;;;;;2.15;0.40;;;;;;;;;;4979337;28;20026;-80
2021/03/12 14:15:37;;;;;;;2.45;0.70;;;;;;;;;;4995288;28;20038;-82
2021/03/12 14:18:04;;;;;;;0.90;0.50;;;;;;;;;;4979620;28;20027;-81
2021/03/12 14:20:30;;;;;;;2.35;0.40;;;;;;;;;;4998006;28;20028;-83
2021/03/12 14:22:56;;;;;;;2.13;0.30;;;;;;;;;;4979157;28;20026;-82
2021/03/12 14:25:22;;;;;;;0.88;0.30;;;;;;;;;;4979457;28;20030;-81
2021/03/12 14:27:48;;;;;;;1.67;0.50;;;;;;;;;;4977562;28;20030;-81
2021/03/12 14:30:15;;;;;;;0.82;0.40;;;;;;;;;;4976924;28;20026;-81
2021/03/12 14:32:41;;;;;;;2.80;0.50;;;;;;;;;;4976039;28;20150;-80
2021/03/12 14:35:07;;;;;;;3.55;0.55;;;;;;;;;;4994586;28;20092;-91
2021/03/12 14:37:33;;;;;;;1.40;0.40;;;;;;;;;;4977313;28;20072;-82